ARG1551 SACO-SABE
Flight info
| Callsign | ARG1551 |
|---|---|
| Flight time | 1h 0m |
| Altitude | 35000 |
| Route | UTRAX1C UTRAX UW24 SNT SNT9R |
| Aircraft | B738/M-SDE2E3FGHIRWXY/LB1 |
Departure
| Time | 2026-05-04 03:11 |
|---|---|
| Airport | Ingeniero Aeronáutico Ambrosio L.V. Taravella International Airport (SACO) |
Arrival
| Time | 2026-05-04 04:12 |
|---|---|
| Airport | Aeroparque Jorge Newbery (SABE) |
| Time | Latitude | Longitude | Altitude | Speed | Heading |
|---|---|---|---|---|---|
| 2026-05-04 02:55 | -31.31551 | -64.21168 | 1612 ft | 0 kts | 257° |
| 2026-05-04 03:03 | -31.31549 | -64.21155 | 1621 ft | 4 kts | 257° |
| 2026-05-04 03:03 | -31.31542 | -64.21124 | 1612 ft | 4 kts | 252° |
| 2026-05-04 03:03 | -31.31532 | -64.21096 | 1612 ft | 4 kts | 232° |
| 2026-05-04 03:04 | -31.31514 | -64.21081 | 1621 ft | 2 kts | 181° |
| 2026-05-04 03:04 | -31.31491 | -64.21081 | 1612 ft | 1 kts | 180° |
| 2026-05-04 03:04 | -31.31490 | -64.21081 | 1612 ft | 0 kts | 180° |
| 2026-05-04 03:06 | -31.31491 | -64.21081 | 1612 ft | 1 kts | 180° |
| 2026-05-04 03:07 | -31.31524 | -64.21081 | 1617 ft | 9 kts | 180° |
| 2026-05-04 03:07 | -31.31590 | -64.21102 | 1612 ft | 10 kts | 180° |
| 2026-05-04 03:07 | -31.31659 | -64.21102 | 1612 ft | 10 kts | 180° |
| 2026-05-04 03:07 | -31.31725 | -64.21092 | 1616 ft | 10 kts | 150° |
| 2026-05-04 03:08 | -31.31776 | -64.21045 | 1619 ft | 9 kts | 146° |
| 2026-05-04 03:08 | -31.31841 | -64.21029 | 1614 ft | 11 kts | 178° |
| 2026-05-04 03:08 | -31.31935 | -64.21027 | 1619 ft | 16 kts | 179° |
| 2026-05-04 03:08 | -31.32048 | -64.21025 | 1617 ft | 16 kts | 180° |
| 2026-05-04 03:09 | -31.32158 | -64.21025 | 1617 ft | 15 kts | 180° |
| 2026-05-04 03:09 | -31.32263 | -64.21022 | 1612 ft | 15 kts | 178° |
| 2026-05-04 03:09 | -31.32364 | -64.21020 | 1620 ft | 14 kts | 179° |
| 2026-05-04 03:09 | -31.32433 | -64.20953 | 1615 ft | 14 kts | 109° |
| 2026-05-04 03:10 | -31.32410 | -64.20855 | 1612 ft | 13 kts | 48° |
| 2026-05-04 03:10 | -31.32330 | -64.20816 | 1618 ft | 13 kts | 2° |
| 2026-05-04 03:10 | -31.32317 | -64.20816 | 1616 ft | 1 kts | 0° |
| 2026-05-04 03:10 | -31.32173 | -64.20814 | 1614 ft | 49 kts | 0° |
| 2026-05-04 03:11 | -31.31578 | -64.20827 | 1617 ft | 121 kts | 359° |
| 2026-05-04 03:11 | -31.30521 | -64.20844 | 1672 ft | 177 kts | 359° |
| 2026-05-04 03:11 | -31.29263 | -64.20856 | 2472 ft | 180 kts | 0° |
| 2026-05-04 03:11 | -31.27987 | -64.20720 | 3310 ft | 192 kts | 9° |
| 2026-05-04 03:12 | -31.26667 | -64.20169 | 3674 ft | 213 kts | 25° |
| 2026-05-04 03:12 | -31.25481 | -64.19104 | 4350 ft | 216 kts | 42° |
| 2026-05-04 03:12 | -31.24632 | -64.17659 | 5120 ft | 216 kts | 60° |
| 2026-05-04 03:12 | -31.24168 | -64.15959 | 5638 ft | 230 kts | 76° |
| 2026-05-04 03:13 | -31.24046 | -64.14014 | 5827 ft | 255 kts | 86° |
| 2026-05-04 03:13 | -31.24066 | -64.11843 | 6047 ft | 279 kts | 94° |
| 2026-05-04 03:13 | -31.24693 | -64.09656 | 6664 ft | 290 kts | 119° |
| 2026-05-04 03:13 | -31.25945 | -64.07800 | 7385 ft | 294 kts | 135° |
| 2026-05-04 03:14 | -31.27407 | -64.06124 | 8145 ft | 295 kts | 138° |
| 2026-05-04 03:14 | -31.28419 | -64.05009 | 8660 ft | 296 kts | 139° |
| 2026-05-04 03:14 | -31.29943 | -64.03339 | 9283 ft | 304 kts | 140° |
| 2026-05-04 03:14 | -31.31980 | -64.01093 | 10275 ft | 305 kts | 140° |
| 2026-05-04 03:15 | -31.33040 | -63.99919 | 10491 ft | 317 kts | 140° |
| 2026-05-04 03:15 | -31.34672 | -63.98103 | 10640 ft | 339 kts | 140° |
| 2026-05-04 03:15 | -31.36445 | -63.96119 | 10859 ft | 356 kts | 140° |
| 2026-05-04 03:15 | -31.38226 | -63.94111 | 11318 ft | 363 kts | 140° |
| 2026-05-04 03:16 | -31.40046 | -63.92048 | 11930 ft | 365 kts | 140° |
| 2026-05-04 03:16 | -31.41874 | -63.89972 | 12580 ft | 368 kts | 140° |
| 2026-05-04 03:16 | -31.43719 | -63.87874 | 13160 ft | 371 kts | 140° |
| 2026-05-04 03:16 | -31.45581 | -63.85756 | 13774 ft | 375 kts | 140° |
| 2026-05-04 03:17 | -31.47456 | -63.83621 | 14324 ft | 378 kts | 140° |
| 2026-05-04 03:17 | -31.49349 | -63.81467 | 14853 ft | 381 kts | 140° |
| 2026-05-04 03:17 | -31.51260 | -63.79290 | 15367 ft | 385 kts | 141° |
| 2026-05-04 03:17 | -31.53190 | -63.77091 | 15884 ft | 389 kts | 141° |
| 2026-05-04 03:18 | -31.55140 | -63.74868 | 16416 ft | 393 kts | 141° |
| 2026-05-04 03:18 | -31.57105 | -63.72625 | 16940 ft | 397 kts | 141° |
| 2026-05-04 03:18 | -31.59094 | -63.70354 | 17432 ft | 401 kts | 141° |
| 2026-05-04 03:18 | -31.61099 | -63.68064 | 17951 ft | 404 kts | 141° |
| 2026-05-04 03:19 | -31.63115 | -63.65758 | 18529 ft | 405 kts | 141° |
| 2026-05-04 03:19 | -31.65138 | -63.63443 | 19017 ft | 408 kts | 141° |
| 2026-05-04 03:19 | -31.67179 | -63.61108 | 19451 ft | 412 kts | 141° |
| 2026-05-04 03:19 | -31.69237 | -63.58750 | 19891 ft | 415 kts | 141° |
| 2026-05-04 03:20 | -31.71311 | -63.56373 | 20365 ft | 418 kts | 141° |
| 2026-05-04 03:20 | -31.73398 | -63.53980 | 20822 ft | 421 kts | 141° |
| 2026-05-04 03:20 | -31.75505 | -63.51560 | 21255 ft | 425 kts | 141° |
| 2026-05-04 03:20 | -31.77623 | -63.49127 | 21707 ft | 428 kts | 141° |
| 2026-05-04 03:21 | -31.79760 | -63.46670 | 22162 ft | 431 kts | 142° |
| 2026-05-04 03:21 | -31.81909 | -63.44198 | 22610 ft | 434 kts | 142° |
| 2026-05-04 03:21 | -31.84072 | -63.41707 | 23035 ft | 437 kts | 141° |
| 2026-05-04 03:21 | -31.86252 | -63.39197 | 23445 ft | 440 kts | 142° |
| 2026-05-04 03:22 | -31.88444 | -63.36660 | 23807 ft | 444 kts | 140° |
| 2026-05-04 03:22 | -31.90514 | -63.33924 | 24164 ft | 451 kts | 135° |
| 2026-05-04 03:22 | -31.92483 | -63.31037 | 24542 ft | 454 kts | 134° |
| 2026-05-04 03:22 | -31.94422 | -63.28096 | 24903 ft | 456 kts | 133° |
| 2026-05-04 03:23 | -31.96363 | -63.25129 | 25254 ft | 459 kts | 134° |
| 2026-05-04 03:23 | -31.98318 | -63.22154 | 25593 ft | 461 kts | 134° |
| 2026-05-04 03:23 | -32.00296 | -63.19166 | 25956 ft | 463 kts | 134° |
| 2026-05-04 03:23 | -32.02290 | -63.16174 | 26279 ft | 466 kts | 134° |
| 2026-05-04 03:24 | -32.04301 | -63.13169 | 26603 ft | 468 kts | 134° |
| 2026-05-04 03:24 | -32.06295 | -63.10195 | 26927 ft | 470 kts | 134° |
| 2026-05-04 03:24 | -32.08354 | -63.07124 | 27257 ft | 472 kts | 134° |
| 2026-05-04 03:24 | -32.10366 | -63.04123 | 27559 ft | 474 kts | 135° |
| 2026-05-04 03:25 | -32.12415 | -63.01063 | 27860 ft | 476 kts | 135° |
| 2026-05-04 03:25 | -32.14467 | -62.97995 | 28157 ft | 479 kts | 135° |
| 2026-05-04 03:25 | -32.16539 | -62.94895 | 28456 ft | 481 kts | 135° |
| 2026-05-04 03:25 | -32.18612 | -62.91790 | 28772 ft | 483 kts | 135° |
| 2026-05-04 03:26 | -32.20697 | -62.88664 | 29041 ft | 486 kts | 135° |
| 2026-05-04 03:26 | -32.22792 | -62.85521 | 29311 ft | 488 kts | 135° |
| 2026-05-04 03:26 | -32.24891 | -62.82368 | 29594 ft | 490 kts | 135° |
| 2026-05-04 03:26 | -32.26998 | -62.79199 | 29899 ft | 491 kts | 135° |
| 2026-05-04 03:27 | -32.29112 | -62.76018 | 30164 ft | 493 kts | 135° |
| 2026-05-04 03:27 | -32.31233 | -62.72825 | 30383 ft | 495 kts | 135° |
| 2026-05-04 03:27 | -32.33353 | -62.69628 | 30658 ft | 495 kts | 135° |
| 2026-05-04 03:27 | -32.35474 | -62.66427 | 30998 ft | 493 kts | 135° |
| 2026-05-04 03:28 | -32.37582 | -62.63241 | 31369 ft | 491 kts | 135° |
| 2026-05-04 03:28 | -32.39685 | -62.60062 | 31702 ft | 490 kts | 135° |
| 2026-05-04 03:28 | -32.41783 | -62.56889 | 31992 ft | 490 kts | 135° |
| 2026-05-04 03:28 | -32.43881 | -62.53715 | 32267 ft | 489 kts | 135° |
| 2026-05-04 03:29 | -32.45975 | -62.50544 | 32574 ft | 488 kts | 135° |
| 2026-05-04 03:29 | -32.48061 | -62.47381 | 32900 ft | 487 kts | 135° |
| 2026-05-04 03:29 | -32.50143 | -62.44223 | 33193 ft | 486 kts | 135° |
| 2026-05-04 03:29 | -32.52225 | -62.41062 | 33467 ft | 486 kts | 135° |
| 2026-05-04 03:30 | -32.54302 | -62.37906 | 33772 ft | 485 kts | 135° |
| 2026-05-04 03:30 | -32.56368 | -62.34761 | 34137 ft | 482 kts | 136° |
| 2026-05-04 03:30 | -32.58424 | -62.31629 | 34389 ft | 481 kts | 136° |
| 2026-05-04 03:30 | -32.60483 | -62.28495 | 34543 ft | 483 kts | 136° |
| 2026-05-04 03:31 | -32.62547 | -62.25350 | 34692 ft | 484 kts | 135° |
| 2026-05-04 03:31 | -32.64615 | -62.22194 | 34901 ft | 484 kts | 136° |
| 2026-05-04 03:31 | -32.66679 | -62.19041 | 35031 ft | 485 kts | 136° |
| 2026-05-04 03:32 | -32.70722 | -62.12600 | 35026 ft | 487 kts | 132° |
| 2026-05-04 03:32 | -32.74497 | -62.05930 | 35021 ft | 485 kts | 131° |
| 2026-05-04 03:33 | -32.78199 | -61.99272 | 35028 ft | 481 kts | 131° |
| 2026-05-04 03:33 | -32.81907 | -61.92663 | 35032 ft | 479 kts | 131° |
| 2026-05-04 03:34 | -32.85619 | -61.86090 | 35022 ft | 479 kts | 131° |
| 2026-05-04 03:34 | -32.89337 | -61.79512 | 35046 ft | 480 kts | 131° |
| 2026-05-04 03:35 | -32.93075 | -61.72886 | 35035 ft | 483 kts | 131° |
| 2026-05-04 03:35 | -32.96825 | -61.66222 | 35029 ft | 485 kts | 131° |
| 2026-05-04 03:36 | -33.00584 | -61.59526 | 35033 ft | 487 kts | 131° |
| 2026-05-04 03:36 | -33.04351 | -61.52802 | 35030 ft | 489 kts | 131° |
| 2026-05-04 03:37 | -33.08124 | -61.46056 | 35029 ft | 490 kts | 131° |
| 2026-05-04 03:37 | -33.11900 | -61.39290 | 35031 ft | 490 kts | 131° |
| 2026-05-04 03:38 | -33.15669 | -61.32527 | 35030 ft | 489 kts | 131° |
| 2026-05-04 03:38 | -33.19405 | -61.25809 | 35033 ft | 488 kts | 131° |
| 2026-05-04 03:39 | -33.23155 | -61.19056 | 35042 ft | 488 kts | 131° |
| 2026-05-04 03:39 | -33.26897 | -61.12305 | 35035 ft | 487 kts | 131° |
| 2026-05-04 03:40 | -33.30628 | -61.05562 | 35035 ft | 486 kts | 131° |
| 2026-05-04 03:40 | -33.34350 | -60.98823 | 35033 ft | 485 kts | 131° |
| 2026-05-04 03:41 | -33.38061 | -60.92091 | 35054 ft | 485 kts | 131° |
| 2026-05-04 03:41 | -33.41770 | -60.85352 | 35045 ft | 484 kts | 131° |
| 2026-05-04 03:42 | -33.45472 | -60.78611 | 35038 ft | 484 kts | 131° |
| 2026-05-04 03:42 | -33.49179 | -60.71853 | 34666 ft | 487 kts | 131° |
| 2026-05-04 03:42 | -33.51026 | -60.68477 | 34305 ft | 482 kts | 131° |
| 2026-05-04 03:43 | -33.52853 | -60.65129 | 33919 ft | 478 kts | 131° |
| 2026-05-04 03:43 | -33.54664 | -60.61809 | 33460 ft | 474 kts | 130° |
| 2026-05-04 03:43 | -33.56461 | -60.58515 | 33027 ft | 470 kts | 130° |
| 2026-05-04 03:43 | -33.58241 | -60.55250 | 32627 ft | 466 kts | 130° |
| 2026-05-04 03:44 | -33.60006 | -60.52010 | 32221 ft | 462 kts | 130° |
| 2026-05-04 03:44 | -33.61756 | -60.48796 | 31837 ft | 458 kts | 130° |
| 2026-05-04 03:44 | -33.63493 | -60.45605 | 31446 ft | 455 kts | 130° |
| 2026-05-04 03:44 | -33.65216 | -60.42435 | 31065 ft | 452 kts | 130° |
| 2026-05-04 03:45 | -33.66928 | -60.39285 | 30692 ft | 449 kts | 130° |
| 2026-05-04 03:45 | -33.68623 | -60.36162 | 30335 ft | 446 kts | 130° |
| 2026-05-04 03:45 | -33.70313 | -60.33046 | 29917 ft | 444 kts | 129° |
| 2026-05-04 03:45 | -33.71991 | -60.29951 | 29467 ft | 441 kts | 129° |
| 2026-05-04 03:46 | -33.73655 | -60.26875 | 29062 ft | 437 kts | 129° |
| 2026-05-04 03:46 | -33.75303 | -60.23826 | 28679 ft | 433 kts | 129° |
| 2026-05-04 03:46 | -33.76937 | -60.20802 | 28279 ft | 430 kts | 129° |
| 2026-05-04 03:46 | -33.78557 | -60.17800 | 27908 ft | 426 kts | 129° |
| 2026-05-04 03:47 | -33.80164 | -60.14822 | 27517 ft | 423 kts | 129° |
| 2026-05-04 03:47 | -33.81758 | -60.11866 | 27141 ft | 420 kts | 129° |
| 2026-05-04 03:47 | -33.83342 | -60.08925 | 26767 ft | 417 kts | 129° |
| 2026-05-04 03:47 | -33.84913 | -60.06006 | 26419 ft | 415 kts | 129° |
| 2026-05-04 03:48 | -33.86476 | -60.03099 | 26039 ft | 412 kts | 129° |
| 2026-05-04 03:48 | -33.88028 | -60.00211 | 25667 ft | 410 kts | 129° |
| 2026-05-04 03:48 | -33.89573 | -59.97334 | 25299 ft | 408 kts | 129° |
| 2026-05-04 03:48 | -33.91110 | -59.94471 | 24936 ft | 406 kts | 129° |
| 2026-05-04 03:49 | -33.92638 | -59.91620 | 24578 ft | 404 kts | 128° |
| 2026-05-04 03:49 | -33.94160 | -59.88779 | 24217 ft | 403 kts | 128° |
| 2026-05-04 03:49 | -33.95673 | -59.85952 | 23848 ft | 401 kts | 128° |
| 2026-05-04 03:49 | -33.97184 | -59.83127 | 23447 ft | 401 kts | 128° |
| 2026-05-04 03:50 | -33.98691 | -59.80308 | 23062 ft | 399 kts | 128° |
| 2026-05-04 03:50 | -34.00185 | -59.77509 | 22671 ft | 396 kts | 128° |
| 2026-05-04 03:50 | -34.01651 | -59.74760 | 22293 ft | 394 kts | 128° |
| 2026-05-04 03:50 | -34.03128 | -59.71989 | 21927 ft | 392 kts | 128° |
| 2026-05-04 03:51 | -34.04595 | -59.69235 | 21571 ft | 389 kts | 128° |
| 2026-05-04 03:51 | -34.06052 | -59.66496 | 21214 ft | 387 kts | 128° |
| 2026-05-04 03:51 | -34.07499 | -59.63775 | 20865 ft | 384 kts | 127° |
| 2026-05-04 03:51 | -34.08937 | -59.61069 | 20511 ft | 382 kts | 127° |
| 2026-05-04 03:52 | -34.10368 | -59.58375 | 20169 ft | 380 kts | 127° |
| 2026-05-04 03:52 | -34.11790 | -59.55697 | 19818 ft | 378 kts | 127° |
| 2026-05-04 03:52 | -34.13204 | -59.53031 | 19481 ft | 376 kts | 127° |
| 2026-05-04 03:52 | -34.14611 | -59.50376 | 19137 ft | 375 kts | 127° |
| 2026-05-04 03:53 | -34.16016 | -59.47723 | 18786 ft | 374 kts | 127° |
| 2026-05-04 03:53 | -34.17416 | -59.45077 | 18429 ft | 373 kts | 127° |
| 2026-05-04 03:53 | -34.18812 | -59.42437 | 18047 ft | 372 kts | 127° |
| 2026-05-04 03:53 | -34.20201 | -59.39810 | 17668 ft | 370 kts | 126° |
| 2026-05-04 03:54 | -34.21582 | -59.37192 | 17315 ft | 368 kts | 126° |
| 2026-05-04 03:54 | -34.22956 | -59.34588 | 16964 ft | 366 kts | 126° |
| 2026-05-04 03:54 | -34.24318 | -59.32003 | 16619 ft | 364 kts | 126° |
| 2026-05-04 03:54 | -34.25672 | -59.29434 | 16274 ft | 361 kts | 126° |
| 2026-05-04 03:55 | -34.27014 | -59.26884 | 15936 ft | 358 kts | 126° |
| 2026-05-04 03:55 | -34.28347 | -59.24350 | 15605 ft | 356 kts | 125° |
| 2026-05-04 03:55 | -34.29669 | -59.21834 | 15281 ft | 354 kts | 125° |
| 2026-05-04 03:55 | -34.30986 | -59.19329 | 14949 ft | 352 kts | 124° |
| 2026-05-04 03:56 | -34.32296 | -59.16834 | 14609 ft | 350 kts | 124° |
| 2026-05-04 03:56 | -34.33597 | -59.14354 | 14283 ft | 348 kts | 124° |
| 2026-05-04 03:56 | -34.34887 | -59.11893 | 13959 ft | 346 kts | 124° |
| 2026-05-04 03:56 | -34.36174 | -59.09437 | 13602 ft | 344 kts | 124° |
| 2026-05-04 03:57 | -34.37450 | -59.06998 | 13245 ft | 342 kts | 124° |
| 2026-05-04 03:57 | -34.38720 | -59.04569 | 12900 ft | 340 kts | 124° |
| 2026-05-04 03:57 | -34.39979 | -59.02161 | 12576 ft | 337 kts | 124° |
| 2026-05-04 03:57 | -34.41228 | -58.99769 | 12246 ft | 335 kts | 124° |
| 2026-05-04 03:58 | -34.43701 | -58.95030 | 11601 ft | 331 kts | 124° |
| 2026-05-04 03:58 | -34.44927 | -58.92680 | 11288 ft | 329 kts | 124° |
| 2026-05-04 03:58 | -34.46155 | -58.90323 | 10968 ft | 332 kts | 124° |
| 2026-05-04 03:59 | -34.46974 | -58.88751 | 10752 ft | 335 kts | 124° |
| 2026-05-04 03:59 | -34.48218 | -58.86362 | 10443 ft | 334 kts | 124° |
| 2026-05-04 03:59 | -34.49437 | -58.84015 | 10307 ft | 325 kts | 124° |
| 2026-05-04 03:59 | -34.50629 | -58.81719 | 10151 ft | 318 kts | 124° |
| 2026-05-04 04:00 | -34.51793 | -58.79477 | 10011 ft | 311 kts | 124° |
| 2026-05-04 04:00 | -34.52943 | -58.77264 | 9698 ft | 310 kts | 124° |
| 2026-05-04 04:00 | -34.54088 | -58.75057 | 9404 ft | 308 kts | 124° |
| 2026-05-04 04:00 | -34.55224 | -58.72867 | 9109 ft | 306 kts | 124° |
| 2026-05-04 04:01 | -34.56353 | -58.70686 | 8828 ft | 304 kts | 124° |
| 2026-05-04 04:01 | -34.57474 | -58.68522 | 8524 ft | 302 kts | 123° |
| 2026-05-04 04:01 | -34.58588 | -58.66370 | 8259 ft | 301 kts | 123° |
| 2026-05-04 04:01 | -34.59697 | -58.64226 | 7978 ft | 299 kts | 123° |
| 2026-05-04 04:02 | -34.60800 | -58.62093 | 7699 ft | 298 kts | 123° |
| 2026-05-04 04:02 | -34.61720 | -58.59853 | 7414 ft | 297 kts | 110° |
| 2026-05-04 04:02 | -34.62372 | -58.57481 | 7141 ft | 295 kts | 107° |
| 2026-05-04 04:02 | -34.62965 | -58.55097 | 6873 ft | 295 kts | 106° |
| 2026-05-04 04:03 | -34.63555 | -58.52717 | 6591 ft | 294 kts | 106° |
| 2026-05-04 04:03 | -34.64155 | -58.50345 | 6299 ft | 294 kts | 106° |
| 2026-05-04 04:03 | -34.64763 | -58.47985 | 6013 ft | 292 kts | 106° |
| 2026-05-04 04:03 | -34.65368 | -58.45666 | 5771 ft | 284 kts | 107° |
| 2026-05-04 04:04 | -34.65961 | -58.43415 | 5499 ft | 275 kts | 106° |
| 2026-05-04 04:04 | -34.66536 | -58.41236 | 5214 ft | 267 kts | 106° |
| 2026-05-04 04:04 | -34.67097 | -58.39115 | 4937 ft | 260 kts | 106° |
| 2026-05-04 04:04 | -34.67644 | -58.37051 | 4756 ft | 252 kts | 105° |
| 2026-05-04 04:05 | -34.68173 | -58.35054 | 4635 ft | 245 kts | 106° |
| 2026-05-04 04:05 | -34.68682 | -58.33132 | 4507 ft | 232 kts | 105° |
| 2026-05-04 04:05 | -34.69164 | -58.31314 | 4440 ft | 222 kts | 105° |
| 2026-05-04 04:05 | -34.69636 | -58.29527 | 4378 ft | 223 kts | 105° |
| 2026-05-04 04:06 | -34.70098 | -58.27705 | 4193 ft | 227 kts | 98° |
| 2026-05-04 04:06 | -34.69989 | -58.25871 | 3960 ft | 213 kts | 57° |
| 2026-05-04 04:06 | -34.69090 | -58.24577 | 3768 ft | 194 kts | 27° |
| 2026-05-04 04:06 | -34.67909 | -58.23939 | 3549 ft | 180 kts | 5° |
| 2026-05-04 04:07 | -34.66703 | -58.23845 | 3332 ft | 169 kts | 349° |
| 2026-05-04 04:07 | -34.65671 | -58.24395 | 3120 ft | 164 kts | 315° |
| 2026-05-04 04:07 | -34.64984 | -58.25524 | 3000 ft | 169 kts | 308° |
| 2026-05-04 04:07 | -34.64295 | -58.26669 | 2786 ft | 165 kts | 308° |
| 2026-05-04 04:08 | -34.63639 | -58.27793 | 2554 ft | 160 kts | 307° |
| 2026-05-04 04:08 | -34.63030 | -58.28864 | 2358 ft | 148 kts | 308° |
| 2026-05-04 04:08 | -34.62475 | -58.29851 | 2168 ft | 140 kts | 308° |
| 2026-05-04 04:08 | -34.61939 | -58.30805 | 1988 ft | 135 kts | 308° |
| 2026-05-04 04:09 | -34.61412 | -58.31747 | 1814 ft | 135 kts | 309° |
| 2026-05-04 04:09 | -34.60889 | -58.32681 | 1636 ft | 136 kts | 309° |
| 2026-05-04 04:09 | -34.60357 | -58.33633 | 1451 ft | 137 kts | 309° |
| 2026-05-04 04:09 | -34.59818 | -58.34598 | 1269 ft | 140 kts | 309° |
| 2026-05-04 04:10 | -34.59276 | -58.35571 | 1080 ft | 138 kts | 308° |
| 2026-05-04 04:10 | -34.58745 | -58.36556 | 906 ft | 143 kts | 308° |
| 2026-05-04 04:10 | -34.58179 | -58.37572 | 684 ft | 147 kts | 307° |
| 2026-05-04 04:10 | -34.57614 | -58.38588 | 485 ft | 144 kts | 306° |
| 2026-05-04 04:11 | -34.57045 | -58.39590 | 299 ft | 144 kts | 307° |
| 2026-05-04 04:11 | -34.56481 | -58.40587 | 67 ft | 142 kts | 305° |
| 2026-05-04 04:11 | -34.55967 | -58.41502 | 24 ft | 113 kts | 304° |
| 2026-05-04 04:11 | -34.55608 | -58.42145 | 30 ft | 71 kts | 304° |
| 2026-05-04 04:12 | -34.55427 | -58.42471 | 27 ft | 22 kts | 304° |
| 2026-05-04 04:12 | -34.55372 | -58.42489 | 24 ft | 9 kts | 40° |
| 2026-05-04 04:12 | -34.55366 | -58.42421 | 24 ft | 8 kts | 99° |
| 2026-05-04 04:12 | -34.55384 | -58.42355 | 24 ft | 8 kts | 120° |
| 2026-05-04 04:13 | -34.55416 | -58.42300 | 24 ft | 8 kts | 128° |
| 2026-05-04 04:13 | -34.55449 | -58.42248 | 28 ft | 8 kts | 127° |
| 2026-05-04 04:13 | -34.55481 | -58.42198 | 28 ft | 7 kts | 127° |
| 2026-05-04 04:13 | -34.55511 | -58.42149 | 28 ft | 7 kts | 126° |
| 2026-05-04 04:14 | -34.55540 | -58.42102 | 28 ft | 7 kts | 127° |
| 2026-05-04 04:14 | -34.55569 | -58.42055 | 25 ft | 7 kts | 127° |
| 2026-05-04 04:14 | -34.55596 | -58.42008 | 25 ft | 7 kts | 123° |
| 2026-05-04 04:14 | -34.55634 | -58.41939 | 27 ft | 12 kts | 124° |
| 2026-05-04 04:15 | -34.55684 | -58.41851 | 26 ft | 13 kts | 124° |
| 2026-05-04 04:15 | -34.55733 | -58.41764 | 24 ft | 12 kts | 122° |
| 2026-05-04 04:15 | -34.55770 | -58.41671 | 24 ft | 12 kts | 115° |
| 2026-05-04 04:15 | -34.55807 | -58.41582 | 26 ft | 12 kts | 117° |
| 2026-05-04 04:16 | -34.55844 | -58.41495 | 24 ft | 11 kts | 117° |
| 2026-05-04 04:16 | -34.55880 | -58.41410 | 26 ft | 11 kts | 117° |
| 2026-05-04 04:16 | -34.55908 | -58.41326 | 27 ft | 11 kts | 84° |
| 2026-05-04 04:16 | -34.55860 | -58.41281 | 27 ft | 7 kts | 14° |
| 2026-05-04 04:17 | -34.55820 | -58.41314 | 27 ft | 7 kts | 303° |
| 2026-05-04 04:17 | -34.55805 | -58.41343 | 28 ft | 4 kts | 302° |
| 2026-05-04 04:17 | -34.55781 | -58.41342 | 27 ft | 4 kts | 27° |
| 2026-05-04 04:17 | -34.55766 | -58.41330 | 25 ft | 0 kts | 34° |
| 2026-05-04 04:18 | -34.55763 | -58.41328 | 24 ft | 0 kts | 33° |
| 2026-05-04 04:18 | -34.55760 | -58.41325 | 26 ft | 0 kts | 33° |